This is the latest recevied weather packets stored in our database for station/object DG2US-10. If no packets are shown the sender has not sent any weather packets the latest 1 day(s).
| Time | Temp. | Humidity | Pressure | Rain* | Wind** | Luminosity | Snow |
|---|---|---|---|---|---|---|---|
| 1778098261 | 14.44° C | 64% | 1007.2 hPa | - | - | - | - |
| 1778097361 | 15° C | 60% | 1007.3 hPa | - | - | - | - |
| 1778096461 | 15.56° C | 59% | 1007.3 hPa | - | - | - | - |
| 1778095561 | 15.56° C | 59% | 1007.1 hPa | - | - | - | - |
| 1778089260 | 18.89° C | 52% | 1006 hPa | - | - | - | - |
| 1778086560 | 22.78° C | 44% | 1005.3 hPa | - | - | - | - |
| 1778085660 | 22.22° C | 44% | 1005.3 hPa | - | - | - | - |
| 1778084760 | 23.33° C | 43% | 1005.4 hPa | - | - | - | - |
| 1778083860 | 23.33° C | 42% | 1005.5 hPa | - | - | - | - |
| 1778076659 | 25° C | 43% | 1006 hPa | - | - | - | - |
| 1778074859 | 25° C | 42% | 1006.1 hPa | - | - | - | - |
| 1778073959 | 25.56° C | 42% | 1006 hPa | - | - | - | - |
| 1778073059 | 25.56° C | 42% | 1006.2 hPa | - | - | - | - |
| 1778072159 | 25° C | 43% | 1006.4 hPa | - | - | - | - |
| 1778065858 | 23.89° C | 44% | 1006.4 hPa | - | - | - | - |
| 1778064958 | 23.89° C | 45% | 1006.6 hPa | - | - | - | - |
| 1778064058 | 23.89° C | 45% | 1006.5 hPa | - | - | - | - |
| 1778063158 | 24.44° C | 43% | 1006.4 hPa | - | - | - | - |
| 1778062258 | 23.89° C | 45% | 1006.4 hPa | - | - | - | - |
| 1778061358 | 22.78° C | 47% | 1006.2 hPa | - | - | - | - |
| 1778055057 | 21.11° C | 54% | 1005.3 hPa | - | - | - | - |
| 1778054157 | 20° C | 54% | 1005.2 hPa | - | - | - | - |
| 1778053257 | 18.89° C | 63% | 1005.3 hPa | - | - | - | - |
| 1778052357 | 16.67° C | 62% | 1005.5 hPa | - | - | - | - |
| 1778051457 | 16.67° C | 64% | 1005.5 hPa | - | - | - | - |
* Rain since midnight (hover to see other rain measurements)
** Current wind speed in m/s (hover to see current wind gust speed)